Swiss, Missouri
Current Conditions -  °F | °C
As of 12:55 AM on Thursday 27 Nov 2014 (Local Time) from KFYG Reporting Station
Haze Haze  
Wind Chill: 22°   Ceiling: 700
Heat Index: 32°   Visibility: 5mi
Dew Point: 30°   Wind: 14mph
Humidity: 93%   Direction: 350°N
Pressure: 30.28"   Gusts: NA
Location:  38.5988°N, 91.4946°W
Report Text: KFYG 270655Z AUTO 35012KT 5SM BR OVC007 00/M01 A3028 RMK AO2
Loading
Personal Weather Stations






























Interactive Weather Map New forecast layout! Learn more

10-Day Weather Forecast

Advertisements
Track Severe Weather on mobile